createdAt,value
2023-03-19T08:18:17.578Z,16.88
2023-03-19T08:19:17.500Z,16.88
2023-03-19T08:20:17.455Z,16.88
2023-03-19T08:21:17.400Z,16.88
2023-03-19T08:22:17.358Z,22.50
2023-03-19T08:23:17.303Z,22.50
2023-03-19T08:24:17.253Z,28.13
2023-03-19T08:25:17.207Z,28.13
2023-03-19T08:26:17.159Z,28.13
2023-03-19T08:27:17.114Z,22.50
2023-03-19T08:28:17.073Z,22.50
2023-03-19T08:29:18.960Z,22.50
2023-03-19T08:30:16.992Z,22.50
2023-03-19T08:31:17.015Z,22.50
2023-03-19T08:32:16.894Z,28.13
2023-03-19T08:33:16.845Z,28.13
2023-03-19T08:34:16.817Z,28.13
2023-03-19T08:35:16.759Z,33.75
2023-03-19T08:36:16.904Z,33.75
2023-03-19T08:37:16.659Z,33.75
2023-03-19T08:38:16.619Z,33.75
2023-03-19T08:40:42.489Z,28.13
2023-03-19T08:41:42.439Z,28.13
2023-03-19T08:42:44.878Z,28.13
2023-03-19T08:43:42.502Z,22.50
2023-03-19T08:44:42.317Z,22.50
2023-03-19T08:45:42.267Z,33.75
2023-03-19T08:46:42.241Z,45.00
2023-03-19T08:47:42.174Z,45.00
2023-03-19T08:48:42.132Z,50.63
2023-03-19T08:49:42.107Z,50.63
2023-03-19T08:50:42.052Z,50.63
2023-03-19T08:51:42.000Z,50.63
2023-03-19T08:52:41.965Z,56.25
2023-03-19T08:53:41.915Z,56.25
2023-03-19T08:54:41.873Z,56.25
2023-03-19T08:55:41.829Z,50.63
2023-03-19T08:56:41.788Z,50.63
2023-03-19T08:57:41.742Z,50.63
2023-03-19T08:58:41.708Z,50.63
2023-03-19T08:59:41.658Z,50.63
2023-03-19T09:00:41.621Z,50.63
2023-03-19T09:01:41.609Z,56.25
2023-03-19T09:02:41.561Z,56.25
2023-03-19T09:03:41.524Z,56.25
2023-03-19T09:04:41.737Z,61.88
2023-03-19T09:05:41.481Z,67.50
2023-03-19T09:06:41.364Z,61.88
2023-03-19T09:07:41.310Z,56.25
2023-03-19T09:08:41.271Z,61.88
2023-03-19T09:10:24.617Z,56.25
2023-03-19T09:12:31.978Z,56.25
2023-03-19T09:13:31.940Z,56.25
2023-03-19T09:14:31.892Z,61.88
2023-03-19T09:15:31.897Z,61.88
2023-03-19T09:18:59.403Z,67.50
2023-03-19T09:19:57.414Z,67.50
2023-03-19T09:20:57.395Z,67.50
2023-03-19T09:21:57.347Z,67.50
2023-03-19T09:22:57.296Z,67.50
2023-03-19T09:23:57.241Z,67.50
2023-03-19T09:24:57.202Z,67.50
2023-03-19T09:26:57.114Z,61.88
2023-03-19T09:27:57.076Z,61.88
2023-03-19T09:28:57.034Z,67.50
2023-03-19T09:29:56.998Z,67.50
2023-03-19T09:30:56.987Z,67.50
2023-03-19T09:31:56.918Z,67.50
2023-03-19T09:32:56.937Z,67.50
2023-03-19T09:33:56.824Z,67.50
2023-03-19T09:35:54.223Z,67.50
2023-03-19T09:36:54.155Z,73.13
2023-03-19T09:37:54.095Z,73.13
2023-03-19T09:38:54.051Z,73.13
2023-03-19T09:39:54.016Z,67.50
2023-03-19T09:40:53.965Z,61.88
2023-03-19T09:41:53.932Z,56.25
2023-03-19T09:42:53.883Z,56.25
2023-03-19T09:43:53.841Z,56.25
2023-03-19T09:44:53.799Z,50.63
2023-03-19T09:46:56.254Z,45.00
2023-03-19T09:48:56.081Z,39.38
2023-03-19T09:49:56.040Z,33.75
2023-03-19T09:50:56.005Z,28.13
2023-03-19T09:51:55.963Z,28.13
2023-03-19T09:52:55.935Z,28.13
2023-03-19T09:53:55.969Z,28.13
2023-03-19T09:54:55.828Z,28.13
2023-03-19T09:55:55.785Z,28.13
2023-03-19T09:57:43.142Z,22.50
2023-03-19T09:58:43.098Z,28.13
2023-03-19T09:59:43.050Z,39.38
2023-03-19T10:00:43.007Z,45.00
2023-03-19T10:01:43.086Z,50.63
2023-03-19T10:02:42.924Z,61.88
2023-03-19T10:03:42.932Z,67.50
2023-03-19T10:05:42.795Z,73.13
2023-03-19T10:07:45.169Z,73.13
2023-03-19T10:08:45.382Z,67.50
2023-03-19T10:09:45.080Z,73.13
2023-03-19T10:10:45.045Z,73.13
2023-03-19T10:11:45.009Z,78.75
2023-03-19T10:12:44.954Z,73.13
2023-03-19T10:13:44.913Z,67.50
2023-03-19T10:14:44.868Z,61.88
2023-03-19T10:15:44.830Z,50.63
2023-03-19T10:16:44.791Z,50.63
2023-03-19T10:17:44.746Z,50.63
2023-03-19T10:18:45.124Z,56.25
2023-03-19T10:19:44.976Z,61.88
2023-03-19T10:20:44.628Z,56.25
2023-03-19T10:21:44.577Z,50.63
2023-03-19T10:22:44.536Z,50.63
2023-03-19T10:23:44.499Z,50.63
2023-03-19T10:24:44.470Z,56.25
2023-03-19T10:25:44.414Z,56.25
2023-03-19T10:26:44.367Z,61.88
2023-03-19T10:27:44.329Z,73.13
2023-03-19T10:28:44.284Z,73.13
2023-03-19T10:29:44.248Z,73.13
2023-03-19T10:30:44.205Z,73.13
2023-03-19T10:31:44.300Z,67.50
2023-03-19T10:32:44.189Z,67.50
2023-03-19T10:33:44.080Z,61.88
2023-03-19T10:34:44.048Z,56.25
2023-03-19T10:35:44.024Z,56.25
2023-03-19T10:36:43.953Z,61.88
2023-03-19T10:37:43.912Z,61.88
2023-03-19T10:38:43.874Z,61.88
2023-03-19T10:40:43.807Z,50.63
2023-03-19T10:41:43.744Z,50.63
2023-03-19T10:42:43.713Z,50.63
2023-03-19T10:43:43.660Z,50.63
2023-03-19T10:44:43.621Z,45.00
2023-03-19T10:45:43.645Z,39.38
2023-03-19T10:46:43.541Z,39.38
2023-03-19T10:47:43.496Z,33.75
2023-03-19T10:48:43.452Z,33.75
2023-03-19T10:49:43.417Z,28.13
2023-03-19T10:50:43.372Z,28.13
2023-03-19T10:51:43.330Z,22.50
2023-03-19T10:52:43.294Z,22.50
2023-03-19T10:53:43.252Z,22.50
2023-03-19T10:54:43.208Z,16.88
2023-03-19T10:55:43.159Z,16.88
2023-03-19T10:56:43.137Z,16.88
2023-03-19T10:57:43.088Z,22.50
2023-03-19T10:58:43.047Z,22.50
2023-03-19T10:59:42.993Z,22.50
2023-03-19T11:00:43.027Z,22.50
2023-03-19T11:01:42.911Z,22.50
2023-03-19T11:02:42.867Z,22.50
2023-03-19T11:03:42.837Z,16.88
2023-03-19T11:04:42.781Z,16.88
2023-03-19T11:05:42.745Z,16.88
2023-03-19T11:06:43.107Z,11.25
2023-03-19T11:07:42.653Z,11.25
2023-03-19T11:09:42.590Z,16.88
2023-03-19T11:10:42.527Z,16.88
2023-03-19T11:11:42.525Z,16.88
2023-03-19T11:12:42.477Z,16.88
2023-03-19T11:13:42.416Z,22.50
2023-03-19T11:14:42.401Z,22.50
2023-03-19T11:15:42.327Z,22.50
2023-03-19T11:16:42.314Z,16.88
2023-03-19T11:17:42.227Z,16.88
2023-03-19T11:18:42.182Z,16.88
2023-03-19T11:19:42.140Z,11.25
2023-03-19T11:20:42.100Z,11.25
2023-03-19T11:21:42.066Z,16.88
2023-03-19T11:22:42.011Z,22.50
2023-03-19T11:23:41.971Z,28.13
2023-03-19T11:24:41.935Z,33.75
2023-03-19T11:25:41.898Z,39.38
2023-03-19T11:26:41.845Z,45.00
2023-03-19T11:27:41.798Z,50.63
2023-03-19T11:28:41.775Z,50.63
2023-03-19T11:29:41.752Z,56.25
2023-03-19T11:30:41.680Z,56.25
2023-03-19T11:31:41.677Z,67.50
2023-03-19T11:32:41.762Z,73.13
2023-03-19T11:33:41.551Z,84.38
2023-03-19T11:34:41.503Z,90.00
2023-03-19T11:35:41.473Z,90.00
2023-03-19T11:36:41.417Z,90.00
2023-03-19T11:37:41.375Z,90.00
2023-03-19T11:38:41.334Z,90.00
2023-03-19T11:39:41.298Z,90.00
2023-03-19T11:40:41.243Z,90.00
2023-03-19T11:41:41.202Z,95.63
2023-03-19T11:42:41.156Z,101.25
2023-03-19T11:43:41.130Z,101.25
2023-03-19T11:44:41.104Z,101.25
2023-03-19T11:45:42.232Z,101.25
2023-03-19T11:46:40.989Z,112.50
2023-03-19T11:47:40.966Z,106.88
2023-03-19T11:48:40.916Z,106.88
2023-03-19T11:49:40.859Z,95.63
2023-03-19T11:50:40.821Z,101.25
2023-03-19T11:51:40.774Z,95.63
2023-03-19T11:52:40.732Z,95.63
2023-03-19T11:53:40.699Z,95.63
2023-03-19T11:54:40.646Z,95.63
2023-03-19T11:55:40.613Z,106.88
2023-03-19T11:56:40.563Z,95.63
2023-03-19T11:57:40.560Z,95.63
2023-03-19T11:58:40.480Z,95.63
2023-03-19T11:59:40.448Z,95.63
2023-03-19T12:00:40.413Z,95.63
2023-03-19T12:01:40.357Z,95.63
2023-03-19T12:02:40.351Z,90.00
2023-03-19T12:03:40.383Z,90.00
2023-03-19T12:04:40.225Z,84.38
2023-03-19T12:05:40.187Z,78.75
2023-03-19T12:06:40.145Z,78.75
2023-03-19T12:07:40.105Z,78.75
2023-03-19T12:08:40.074Z,73.13
2023-03-19T12:09:40.026Z,78.75
2023-03-19T12:10:39.977Z,78.75
2023-03-19T12:11:39.948Z,78.75
2023-03-19T12:12:39.896Z,78.75
2023-03-19T12:13:39.901Z,78.75
2023-03-19T12:14:39.811Z,78.75
2023-03-19T12:15:39.810Z,78.75
2023-03-19T12:16:46.212Z,78.75
2023-03-19T12:17:39.691Z,78.75
2023-03-19T12:18:39.641Z,78.75
2023-03-19T12:19:39.606Z,78.75
2023-03-19T12:20:39.557Z,84.38
2023-03-19T12:21:39.522Z,84.38
2023-03-19T12:22:39.478Z,84.38
2023-03-19T12:23:39.445Z,78.75
2023-03-19T12:24:39.393Z,78.75
2023-03-19T12:25:39.354Z,78.75
2023-03-19T12:27:39.273Z,73.13
2023-03-19T12:28:39.227Z,73.13
2023-03-19T12:29:39.188Z,73.13
2023-03-19T12:30:39.155Z,78.75
2023-03-19T12:31:39.112Z,78.75
2023-03-19T12:32:39.137Z,84.38
2023-03-19T12:33:39.017Z,90.00
2023-03-19T12:34:38.977Z,95.63
2023-03-19T12:35:39.067Z,101.25
2023-03-19T12:36:38.902Z,118.13
2023-03-19T12:37:38.860Z,258.75
2023-03-19T12:38:38.814Z,286.88
2023-03-19T12:39:38.768Z,236.25
2023-03-19T12:40:38.737Z,180.00
2023-03-19T12:41:38.687Z,135.00
2023-03-19T12:42:38.647Z,112.50
2023-03-19T12:43:38.605Z,101.25
2023-03-19T12:44:38.568Z,101.25
2023-03-19T12:45:38.522Z,101.25
2023-03-19T12:46:38.542Z,101.25
2023-03-19T12:47:38.449Z,95.63
2023-03-19T12:48:38.417Z,90.00
2023-03-19T12:49:38.361Z,90.00
2023-03-19T12:50:38.321Z,106.88
2023-03-19T12:51:38.279Z,123.75
2023-03-19T12:52:38.249Z,123.75
2023-03-19T12:53:38.196Z,185.63
2023-03-19T12:54:38.165Z,157.50
2023-03-19T12:55:38.116Z,123.75
2023-03-19T12:56:38.078Z,112.50
2023-03-19T12:57:38.041Z,140.63
2023-03-19T12:58:38.008Z,157.50
2023-03-19T12:59:37.986Z,118.13
2023-03-19T13:00:37.918Z,106.88
2023-03-19T13:01:38.055Z,106.88
2023-03-19T13:02:37.853Z,106.88
2023-03-19T13:03:37.796Z,118.13
2023-03-19T13:04:39.859Z,118.13
2023-03-19T13:05:37.712Z,112.50
2023-03-19T13:06:37.677Z,112.50
2023-03-19T13:07:37.634Z,118.13
2023-03-19T13:08:37.599Z,129.38
2023-03-19T13:09:37.552Z,118.13
2023-03-19T13:10:37.525Z,106.88
2023-03-19T13:11:37.474Z,101.25
2023-03-19T13:12:37.433Z,95.63
2023-03-19T13:13:37.394Z,90.00
2023-03-19T13:14:37.353Z,84.38
2023-03-19T13:15:37.310Z,78.75
2023-03-19T13:16:37.347Z,73.13
2023-03-19T13:17:37.235Z,78.75
2023-03-19T13:18:37.210Z,90.00
2023-03-19T13:19:37.153Z,95.63
2023-03-19T13:20:37.143Z,101.25
2023-03-19T13:21:37.070Z,101.25
2023-03-19T13:22:37.029Z,101.25
2023-03-19T13:23:36.992Z,101.25
2023-03-19T13:24:36.960Z,101.25
2023-03-19T13:25:36.911Z,106.88
2023-03-19T13:26:36.869Z,106.88
2023-03-19T13:27:36.838Z,106.88
2023-03-19T13:28:36.817Z,106.88
2023-03-19T13:29:36.829Z,106.88
2023-03-19T13:30:36.707Z,106.88
2023-03-19T13:31:36.830Z,106.88
2023-03-19T13:32:36.699Z,146.25
2023-03-19T13:33:36.583Z,151.88
2023-03-19T13:34:36.549Z,151.88
2023-03-19T13:35:36.613Z,157.50
2023-03-19T13:36:36.491Z,129.38
2023-03-19T13:37:36.423Z,118.13
2023-03-19T13:38:36.384Z,112.50
2023-03-19T13:39:36.340Z,112.50
2023-03-19T13:40:36.304Z,106.88
2023-03-19T13:41:36.262Z,106.88
2023-03-19T13:42:36.228Z,112.50
2023-03-19T13:43:36.179Z,106.88
2023-03-19T13:44:36.143Z,101.25
2023-03-19T13:45:36.121Z,101.25
2023-03-19T13:46:36.098Z,101.25
2023-03-19T13:47:36.020Z,101.25
2023-03-19T13:48:35.980Z,101.25
2023-03-19T13:49:35.935Z,112.50
2023-03-19T13:50:36.153Z,140.63
2023-03-19T13:51:39.306Z,191.25
2023-03-19T13:52:35.824Z,157.50
2023-03-19T13:53:35.773Z,157.50
2023-03-19T13:54:35.737Z,151.88
2023-03-19T13:55:35.694Z,118.13
2023-03-19T13:56:35.675Z,123.75
2023-03-19T13:57:35.625Z,140.63
2023-03-19T13:58:35.582Z,112.50
2023-03-19T13:59:38.153Z,106.88
2023-03-19T14:00:35.932Z,151.88
2023-03-19T14:01:35.457Z,151.88
2023-03-19T14:02:35.420Z,174.38
2023-03-19T14:03:35.403Z,174.38
2023-03-19T14:04:35.359Z,168.75
2023-03-19T14:05:35.296Z,168.75
2023-03-19T14:06:35.374Z,101.25
2023-03-19T14:07:35.233Z,95.63
2023-03-19T14:08:35.185Z,90.00
2023-03-19T14:09:35.135Z,84.38
2023-03-19T14:10:35.373Z,84.38
2023-03-19T14:11:35.056Z,78.75
2023-03-19T14:12:35.012Z,78.75
2023-03-19T14:14:18.360Z,90.00
2023-03-19T14:15:18.321Z,95.63
2023-03-19T14:16:18.301Z,112.50
2023-03-19T14:17:18.238Z,146.25
2023-03-19T14:18:18.211Z,208.13
2023-03-19T14:19:18.484Z,112.50
2023-03-19T14:20:23.541Z,106.88
2023-03-19T14:21:21.482Z,101.25
2023-03-19T14:22:18.039Z,101.25
2023-03-19T14:23:18.028Z,101.25
2023-03-19T14:24:52.366Z,95.63
2023-03-19T14:25:18.090Z,95.63
2023-03-19T14:26:17.883Z,95.63
2023-03-19T14:27:17.841Z,95.63
2023-03-19T14:28:17.804Z,95.63
2023-03-19T14:29:17.764Z,95.63
2023-03-19T14:30:17.724Z,90.00
2023-03-19T14:31:17.769Z,84.38
2023-03-19T14:32:17.665Z,84.38
2023-03-19T14:33:17.668Z,78.75
2023-03-19T14:34:17.584Z,78.75
2023-03-19T14:35:17.537Z,78.75
2023-03-19T14:36:17.486Z,73.13
2023-03-19T14:37:17.437Z,73.13
2023-03-19T14:38:17.401Z,67.50
2023-03-19T14:39:17.388Z,61.88
2023-03-19T14:40:17.331Z,56.25
2023-03-19T14:41:17.274Z,50.63
2023-03-19T14:42:17.237Z,50.63
2023-03-19T14:43:17.195Z,45.00
2023-03-19T14:44:17.166Z,39.38
2023-03-19T14:45:17.114Z,39.38
2023-03-19T14:46:17.128Z,39.38
2023-03-19T14:47:17.058Z,33.75
2023-03-19T14:48:16.995Z,33.75
2023-03-19T14:49:16.965Z,28.13
2023-03-19T14:50:16.940Z,28.13
2023-03-19T14:51:16.883Z,28.13
2023-03-19T14:52:16.848Z,28.13
2023-03-19T14:53:16.820Z,28.13
2023-03-19T14:54:16.754Z,28.13
2023-03-19T14:55:16.740Z,28.13
2023-03-19T14:56:16.671Z,28.13
2023-03-19T14:57:16.631Z,33.75
2023-03-19T14:58:16.597Z,33.75
2023-03-19T14:59:16.551Z,33.75
2023-03-19T15:00:16.515Z,33.75
2023-03-19T15:01:16.491Z,39.38
2023-03-19T15:02:16.450Z,45.00
2023-03-19T15:03:16.390Z,50.63
2023-03-19T15:04:16.346Z,50.63
2023-03-19T15:05:16.390Z,56.25
2023-03-19T15:06:16.268Z,56.25
2023-03-19T15:07:16.247Z,61.88
2023-03-19T15:08:16.185Z,67.50
2023-03-19T15:09:16.178Z,67.50
2023-03-19T15:10:16.132Z,67.50
2023-03-19T15:11:16.117Z,67.50
2023-03-19T15:12:16.026Z,61.88
2023-03-19T15:13:15.999Z,61.88
2023-03-19T15:14:15.944Z,56.25
2023-03-19T15:15:15.912Z,56.25
2023-03-19T15:16:15.928Z,50.63
2023-03-19T15:17:15.829Z,50.63
2023-03-19T15:18:15.785Z,50.63
2023-03-19T15:19:15.736Z,50.63
2023-03-19T15:20:15.711Z,50.63
2023-03-19T15:21:15.649Z,50.63
2023-03-19T15:22:15.613Z,50.63
2023-03-19T15:23:26.391Z,50.63
2023-03-19T15:24:15.537Z,50.63
2023-03-19T15:25:15.486Z,50.63
2023-03-19T15:26:15.457Z,45.00
2023-03-19T15:29:18.656Z,39.38
2023-03-19T15:30:18.703Z,39.38
2023-03-19T15:31:31.141Z,39.38
2023-03-19T15:32:16.106Z,39.38
2023-03-19T15:33:32.993Z,39.38
2023-03-19T15:34:15.248Z,39.38
2023-03-19T15:35:15.280Z,39.38
2023-03-19T15:36:15.042Z,39.38
2023-03-19T15:37:15.000Z,39.38
2023-03-19T15:38:14.952Z,39.38
2023-03-19T15:39:14.916Z,39.38
2023-03-19T15:40:14.868Z,39.38
2023-03-19T15:41:14.839Z,39.38
2023-03-19T15:42:14.794Z,39.38
2023-03-19T15:43:14.752Z,39.38
2023-03-19T15:44:14.726Z,39.38
2023-03-19T15:45:14.684Z,39.38
2023-03-19T15:46:14.754Z,39.38
2023-03-19T15:47:14.582Z,39.38
2023-03-19T15:48:14.548Z,45.00
2023-03-19T15:49:14.511Z,45.00
2023-03-19T15:50:14.457Z,45.00
2023-03-19T15:51:14.434Z,45.00
2023-03-19T15:52:14.424Z,39.38
2023-03-19T15:53:14.421Z,39.38
2023-03-19T15:54:14.324Z,39.38
2023-03-19T15:55:14.264Z,33.75
2023-03-19T15:56:14.213Z,33.75
2023-03-19T15:57:14.167Z,33.75
2023-03-19T15:58:14.148Z,28.13
2023-03-19T15:59:14.084Z,28.13
2023-03-19T16:00:14.059Z,28.13
2023-03-19T16:01:14.111Z,28.13
2023-03-19T16:02:14.027Z,28.13
2023-03-19T16:03:13.927Z,28.13
2023-03-19T16:04:13.885Z,28.13
2023-03-19T16:05:22.472Z,28.13
2023-03-19T16:06:13.808Z,22.50
2023-03-19T16:07:13.759Z,22.50
2023-03-19T16:08:13.727Z,22.50
2023-03-19T16:09:13.702Z,22.50
2023-03-19T16:10:13.655Z,16.88
2023-03-19T16:11:13.594Z,16.88
2023-03-19T16:12:13.549Z,16.88
2023-03-19T16:13:13.512Z,16.88
2023-03-19T16:14:13.483Z,16.88
2023-03-19T16:15:13.429Z,16.88
2023-03-19T16:16:13.428Z,16.88
2023-03-19T16:17:13.365Z,16.88
2023-03-19T16:18:13.303Z,16.88
2023-03-19T16:19:13.264Z,16.88
2023-03-19T16:20:13.239Z,16.88
2023-03-19T16:21:13.179Z,16.88
2023-03-19T16:22:13.463Z,16.88
2023-03-19T16:23:13.097Z,16.88
2023-03-19T16:24:13.053Z,16.88
2023-03-19T16:25:13.008Z,16.88
2023-03-19T16:26:12.991Z,16.88
2023-03-19T16:27:12.952Z,16.88
2023-03-19T16:28:12.899Z,11.25
2023-03-19T16:29:12.842Z,11.25
2023-03-19T16:30:12.798Z,11.25
2023-03-19T16:31:12.807Z,11.25
2023-03-19T16:32:12.713Z,11.25
2023-03-19T16:33:12.800Z,11.25
2023-03-19T16:34:12.629Z,11.25
2023-03-19T16:35:12.611Z,11.25
2023-03-19T16:36:12.635Z,5.63
2023-03-19T16:37:12.501Z,5.63
2023-03-19T16:38:12.462Z,5.63
2023-03-19T16:39:12.440Z,11.25
2023-03-19T16:40:12.374Z,11.25
2023-03-19T16:41:12.337Z,11.25
2023-03-19T16:42:12.317Z,11.25
2023-03-19T16:43:12.253Z,11.25
2023-03-19T16:44:12.247Z,5.63
2023-03-19T16:45:12.963Z,5.63
2023-03-19T16:46:12.245Z,5.63
2023-03-19T16:47:12.078Z,5.63
2023-03-19T16:48:12.040Z,5.63
2023-03-19T16:49:12.027Z,5.63
2023-03-19T16:50:11.979Z,5.63
2023-03-19T16:51:11.912Z,5.63
2023-03-19T16:52:11.872Z,5.63
2023-03-19T16:53:11.856Z,5.63
2023-03-19T16:54:11.843Z,5.63
2023-03-19T16:55:11.745Z,0.00
2023-03-19T16:56:11.723Z,0.00
2023-03-19T16:57:11.684Z,0.00
2023-03-19T16:58:11.639Z,0.00
2023-03-19T16:59:11.598Z,0.00
2023-03-19T17:00:11.535Z,0.00
2023-03-19T17:01:11.495Z,0.00
2023-03-19T17:02:11.470Z,0.00
2023-03-19T17:03:11.406Z,0.00
2023-03-19T17:04:11.398Z,0.00
2023-03-19T17:05:11.341Z,0.00
2023-03-19T17:06:11.297Z,0.00
2023-03-19T17:07:11.240Z,0.00
2023-03-19T17:08:11.196Z,0.00
2023-03-19T17:09:11.159Z,0.00
2023-03-19T17:10:11.135Z,0.00
2023-03-19T17:11:11.074Z,0.00
2023-03-19T17:12:11.033Z,0.00
2023-03-19T17:13:11.011Z,0.00
2023-03-19T17:14:10.954Z,0.00
2023-03-19T17:15:10.902Z,0.00
2023-03-19T17:16:11.214Z,0.00
2023-03-19T17:17:10.818Z,0.00
2023-03-19T17:18:10.798Z,0.00
2023-03-19T17:19:10.736Z,0.00
2023-03-19T17:20:10.699Z,0.00
2023-03-19T17:21:10.666Z,0.00
2023-03-19T17:22:10.610Z,0.00
2023-03-19T17:23:10.569Z,0.00
2023-03-19T17:24:10.522Z,0.00
2023-03-19T17:25:10.480Z,0.00
2023-03-19T17:26:10.440Z,0.00
2023-03-19T17:27:10.414Z,0.00
2023-03-19T17:28:10.354Z,0.00
2023-03-19T17:29:10.318Z,0.00
2023-03-19T17:30:10.271Z,0.00
2023-03-19T17:31:10.255Z,0.00
2023-03-19T17:32:10.191Z,0.00
2023-03-19T17:33:10.493Z,0.00
2023-03-19T17:34:10.140Z,0.00
2023-03-19T17:35:10.383Z,0.00
2023-03-19T17:36:10.048Z,0.00
2023-03-19T17:37:10.008Z,0.00
2023-03-19T17:38:09.932Z,0.00
2023-03-19T17:39:09.913Z,0.00
2023-03-19T17:40:09.852Z,0.00
2023-03-19T17:41:09.827Z,0.00
2023-03-19T17:42:09.782Z,0.00
2023-03-19T17:43:09.740Z,0.00
2023-03-19T17:44:09.679Z,0.00
2023-03-19T17:45:09.652Z,0.00
2023-03-19T17:46:09.599Z,0.00
2023-03-19T17:47:09.547Z,0.00
2023-03-19T17:48:09.533Z,0.00
2023-03-19T17:49:09.474Z,0.00
2023-03-19T17:50:09.429Z,0.00
2023-03-19T17:51:09.395Z,0.00
2023-03-19T17:52:09.341Z,0.00
2023-03-19T17:53:09.619Z,0.00
2023-03-19T17:54:09.286Z,0.00
2023-03-19T17:55:09.211Z,0.00
2023-03-19T17:56:09.173Z,0.00
2023-03-19T17:57:09.132Z,0.00
2023-03-19T17:58:09.421Z,0.00
2023-03-19T17:59:09.043Z,0.00
2023-03-19T18:00:09.025Z,0.00
2023-03-19T18:01:09.029Z,0.00
2023-03-19T18:02:08.920Z,0.00
2023-03-19T18:03:08.917Z,0.00
2023-03-19T18:04:08.881Z,0.00
2023-03-19T18:05:08.798Z,0.00
2023-03-19T18:06:08.758Z,0.00
2023-03-19T18:07:08.730Z,0.00
2023-03-19T18:08:08.668Z,0.00
2023-03-19T18:09:08.645Z,0.00
2023-03-19T18:10:08.591Z,0.00
2023-03-19T18:11:08.541Z,0.00
2023-03-19T18:12:08.491Z,0.00
2023-03-19T18:13:08.471Z,0.00
2023-03-19T18:14:08.413Z,0.00
2023-03-19T18:15:08.382Z,0.00
2023-03-19T18:16:08.345Z,0.00
2023-03-19T18:17:08.287Z,0.00
2023-03-19T18:19:08.204Z,0.00
2023-03-19T18:20:08.174Z,0.00
2023-03-19T18:21:08.134Z,0.00
2023-03-19T18:22:08.068Z,0.00
2023-03-19T18:23:08.040Z,0.00
2023-03-19T18:24:07.985Z,0.00
2023-03-19T18:25:07.963Z,0.00
2023-03-19T18:26:07.895Z,0.00
2023-03-19T18:27:07.876Z,0.00
2023-03-19T18:28:07.812Z,0.00
2023-03-19T18:29:07.791Z,0.00
2023-03-19T18:30:07.745Z,0.00
2023-03-19T18:31:07.685Z,0.00
2023-03-19T18:32:07.736Z,0.00
2023-03-19T18:33:07.652Z,0.00
2023-03-19T18:34:07.589Z,0.00
2023-03-19T18:35:07.517Z,0.00
2023-03-19T18:36:07.475Z,0.00
2023-03-19T18:37:07.441Z,0.00
2023-03-19T18:38:07.403Z,0.00
2023-03-19T18:39:07.345Z,0.00
2023-03-19T18:40:07.301Z,0.00
2023-03-19T18:41:07.273Z,0.00
2023-03-19T18:42:07.212Z,0.00
2023-03-19T18:43:07.169Z,0.00
2023-03-19T18:44:07.164Z,0.00
2023-03-19T18:45:07.092Z,0.00
2023-03-19T18:46:07.144Z,0.00
2023-03-19T18:47:06.993Z,0.00
2023-03-19T18:48:06.970Z,0.00
2023-03-19T18:49:06.932Z,0.00
2023-03-19T18:50:06.886Z,0.00
2023-03-19T18:51:06.833Z,0.00
2023-03-19T18:52:06.786Z,0.00
2023-03-19T18:53:06.740Z,0.00
2023-03-19T18:54:06.694Z,0.00
2023-03-19T18:55:06.653Z,0.00
2023-03-19T18:56:06.610Z,0.00
2023-03-19T18:57:06.587Z,0.00
2023-03-19T18:58:06.542Z,0.00
2023-03-19T18:59:06.482Z,0.00
2023-03-19T19:00:06.441Z,0.00
2023-03-19T19:01:06.454Z,0.00
2023-03-19T19:02:06.355Z,0.00
2023-03-19T19:03:06.340Z,0.00
2023-03-19T19:04:06.397Z,0.00
2023-03-19T19:05:06.220Z,0.00
2023-03-19T19:06:06.186Z,0.00
2023-03-19T19:07:06.144Z,0.00
2023-03-19T19:08:06.090Z,0.00
2023-03-19T19:09:06.058Z,0.00
2023-03-19T19:10:06.030Z,0.00
2023-03-19T19:11:05.990Z,0.00
2023-03-19T19:12:05.915Z,0.00
2023-03-19T19:13:05.887Z,0.00
2023-03-19T19:14:05.827Z,0.00
2023-03-19T19:15:05.787Z,0.00
2023-03-19T19:16:06.073Z,0.00
2023-03-19T19:17:05.696Z,0.00
2023-03-19T19:18:05.672Z,0.00
2023-03-19T19:19:05.935Z,0.00
2023-03-19T19:20:05.586Z,0.00
2023-03-19T19:21:05.553Z,0.00
2023-03-19T19:22:05.498Z,0.00
2023-03-19T19:23:05.455Z,0.00
2023-03-19T19:24:05.396Z,0.00
2023-03-19T19:25:05.348Z,0.00
2023-03-19T19:26:05.327Z,0.00
2023-03-19T19:27:05.287Z,0.00
2023-03-19T19:28:05.305Z,0.00
2023-03-19T19:29:05.207Z,0.00
2023-03-19T19:30:05.166Z,0.00
2023-03-19T19:31:05.145Z,0.00
2023-03-19T19:32:05.065Z,0.00
2023-03-19T19:33:05.055Z,0.00
2023-03-19T19:34:04.990Z,0.00
2023-03-19T19:35:04.935Z,0.00
2023-03-19T19:36:04.929Z,0.00
2023-03-19T19:37:04.841Z,0.00
2023-03-19T19:38:04.793Z,0.00
2023-03-19T19:39:04.754Z,0.00
2023-03-19T19:40:04.714Z,0.00
2023-03-19T19:41:04.662Z,0.00
2023-03-19T19:42:04.642Z,0.00
2023-03-19T19:43:04.902Z,0.00
2023-03-19T19:44:04.574Z,0.00
2023-03-19T19:46:04.491Z,0.00
2023-03-19T19:47:06.728Z,0.00
2023-03-19T19:48:04.380Z,0.00
2023-03-19T19:49:04.319Z,0.00
2023-03-19T19:50:04.284Z,0.00
2023-03-19T19:51:04.259Z,0.00
2023-03-19T19:52:04.189Z,0.00
2023-03-19T19:53:04.156Z,0.00
2023-03-19T19:54:04.125Z,0.00
2023-03-19T19:55:04.068Z,0.00
2023-03-19T19:56:04.062Z,0.00
2023-03-19T19:57:03.990Z,0.00
2023-03-19T19:58:03.934Z,0.00
2023-03-19T19:59:03.889Z,0.00
2023-03-19T20:00:03.848Z,0.00
2023-03-19T20:01:04.718Z,0.00
2023-03-19T20:02:03.774Z,0.00
2023-03-19T20:03:03.717Z,0.00
2023-03-19T20:04:03.813Z,0.00
2023-03-19T20:05:03.642Z,0.00
2023-03-19T20:06:03.616Z,0.00
2023-03-19T20:07:03.867Z,0.00
2023-03-19T20:08:03.499Z,0.00
2023-03-19T20:09:03.464Z,0.00
2023-03-19T20:10:03.430Z,0.00
2023-03-19T20:11:03.385Z,0.00
2023-03-19T20:12:03.321Z,0.00
2023-03-19T20:13:03.604Z,0.00
2023-03-19T20:14:03.265Z,0.00
2023-03-19T20:15:03.195Z,0.00
2023-03-19T20:16:03.273Z,0.00
2023-03-19T20:17:03.109Z,0.00
2023-03-19T20:18:03.389Z,0.00
2023-03-19T20:19:03.154Z,0.00
2023-03-19T20:20:02.976Z,0.00
2023-03-19T20:21:02.926Z,0.00
2023-03-19T20:22:02.893Z,0.00
2023-03-19T20:23:02.842Z,0.00
2023-03-19T20:24:02.933Z,0.00
2023-03-19T20:25:02.778Z,0.00
2023-03-19T20:26:02.711Z,0.00
2023-03-19T20:27:02.693Z,0.00
2023-03-19T20:28:02.642Z,0.00
2023-03-19T20:29:02.585Z,0.00
2023-03-19T20:30:02.536Z,0.00
2023-03-19T20:31:02.534Z,0.00
2023-03-19T20:32:02.473Z,0.00
2023-03-19T20:33:02.537Z,0.00
2023-03-19T20:34:02.442Z,0.00
2023-03-19T20:35:02.358Z,0.00
2023-03-19T20:36:02.331Z,0.00
2023-03-19T20:37:02.239Z,0.00
2023-03-19T20:38:02.184Z,0.00
2023-03-19T20:39:02.473Z,0.00
2023-03-19T20:40:02.116Z,0.00
2023-03-19T20:41:02.058Z,0.00
2023-03-19T20:42:02.029Z,0.00
2023-03-19T20:43:01.968Z,0.00
2023-03-19T20:44:01.943Z,0.00
2023-03-19T20:45:01.888Z,0.00
2023-03-19T20:46:02.002Z,0.00
2023-03-19T20:47:01.811Z,0.00
2023-03-19T20:48:01.754Z,0.00
2023-03-19T20:49:01.721Z,0.00
2023-03-19T20:50:01.680Z,0.00
2023-03-19T20:51:01.701Z,0.00
2023-03-19T20:52:01.577Z,0.00
2023-03-19T20:53:01.552Z,0.00
2023-03-19T20:54:01.514Z,0.00
2023-03-19T20:55:01.491Z,0.00
2023-03-19T20:56:01.413Z,0.00
2023-03-19T20:57:01.382Z,0.00
2023-03-19T20:58:01.313Z,0.00
2023-03-19T20:59:01.266Z,0.00
2023-03-19T21:00:01.222Z,0.00
2023-03-19T21:01:01.209Z,0.00
2023-03-19T21:02:01.185Z,0.00
2023-03-19T21:03:01.167Z,0.00
2023-03-19T21:04:01.072Z,0.00
2023-03-19T21:05:01.331Z,0.00
2023-03-19T21:06:00.990Z,0.00
2023-03-19T21:07:00.917Z,0.00
2023-03-19T21:08:00.889Z,0.00
2023-03-19T21:09:00.851Z,0.00
2023-03-19T21:10:00.809Z,0.00
2023-03-19T21:11:00.761Z,0.00
2023-03-19T21:12:00.696Z,0.00
2023-03-19T21:13:00.657Z,0.00
2023-03-19T21:14:00.629Z,0.00
2023-03-19T21:15:00.589Z,0.00
2023-03-19T21:16:00.640Z,0.00
2023-03-19T21:17:00.527Z,0.00
2023-03-19T21:18:00.445Z,0.00
2023-03-19T21:19:00.436Z,0.00
2023-03-19T21:20:00.376Z,0.00
2023-03-19T21:21:00.328Z,0.00
2023-03-19T21:22:00.289Z,0.00
2023-03-19T21:23:00.262Z,0.00
2023-03-19T21:24:00.206Z,0.00
2023-03-19T21:25:00.157Z,0.00
2023-03-19T21:26:00.416Z,0.00
2023-03-19T21:27:01.889Z,0.00
2023-03-19T21:28:00.002Z,0.00
2023-03-19T21:28:59.975Z,0.00
2023-03-19T21:29:59.911Z,0.00
2023-03-19T21:30:59.934Z,0.00
2023-03-19T21:31:59.847Z,0.00
2023-03-19T21:32:59.848Z,0.00
2023-03-19T21:33:59.749Z,0.00
2023-03-19T21:34:59.698Z,0.00
2023-03-19T21:35:59.735Z,0.00
2023-03-19T21:36:59.631Z,0.00